NCAR-RAP Real-Time Weather Data

Output produced by METARs form (17 January 2019  22:50 UTC)
found at http://weather.rap.ucar.edu/surface/
 
Conditions at: KIND observed 17 January 2019  21:54 UTC
Temperature: 1.7°C (35°F)
Dewpoint: 1.7°C (35°F) [RH = 100%]
Pressure (altimeter): 29.97 inches Hg (1015.0 mb)
[Sea-level pressure: 1015.6 mb]
Winds: from the W (270 degrees) at 5 MPH (4 knots; 2.1 m/s)
Visibility: 0.25 miles (0.40 km)
Ceiling: indefinite ceiling with vertical visibility of 300 feet AGL
Clouds: obscured sky
Present Weather: -DZ FG  (light drizzle, fog)
KIND 172154Z 27004KT 1/4SM R05L/2200V3000FT -DZ FG VV003 02/02 A2997 RMK AO2 TWR VIS 1 SLP156 P0000 T00170017